Dalzell, Illinois
Current Conditions -  °F | °C
As of 2:55 AM on Sunday 23 Nov 2014 (Local Time) from KVYS Reporting Station
Overcast Overcast  
Wind Chill: 45°   Ceiling: 1300
Heat Index: 50°   Visibility: 10mi
Dew Point: 47°   Wind: 14mph
Humidity: 89%   Direction: 180°S
Pressure: 29.78"   Gusts: NA
Location:  41.36°N, 89.18°W
Report Text: KVYS 230855Z AUTO 18012KT 10SM SCT009 OVC013 10/08 A2978 RMK AO2 T00990081
Loading
Personal Weather Stations






























Interactive Weather Map New forecast layout! Learn more

10-Day Weather Forecast

Advertisements
Track Severe Weather on mobile